Conditions actuelles
Plutôt dégagé




Pression
30.53 (inHG) - 1033.92 (mb)
Visibilité

10.0 (km) - 6.2 (miles)
   Température
9  °C
48°F
4  °C
Point de rosée
71  %
 Humidité
   Vitesse du vent
10  km/h
5  kts
6  mph
2.7  m/s
   Direction du vent
 280°
De L'ouest
   Données d'aéroport
LFBU
Location Angoulême-Brie-Champniers 6 km (3.73 mi)
Metar :LFBU 221830Z AUTO 28005KT 230V310 CAVOK 09/04 Q1034 NOSIG
22-02-2020 19:30:00
   Information brute de métar
Le METAR brut est le format le plus répandu dans le monde pour la transmission de données météorologiques d'observation. Il est hautement standardisé par l'Organisation de l'aviation civile internationale (OACI), ce qui lui permet d'être compris dans la plupart des pays.
   API Info
Données fournies par
https://www.checkwx.com/weather/LFBU
   © Info
Les scripts CSS / SVG / PHP ont été développés par weather34.com pour une utilisation dans le modèle weather34 © 2015-2020

Guide Info fourni par Metar-Wikipedia